createdAt,value
2022-10-03T00:00:19.216Z,72.38
2022-10-03T00:03:39.811Z,72.27
2022-10-03T00:06:44.687Z,72.36
2022-10-03T00:09:53.034Z,72.48
2022-10-03T00:13:11.891Z,72.59
2022-10-03T00:16:37.928Z,72.74
2022-10-03T00:19:47.567Z,72.90
2022-10-03T00:22:54.283Z,73.03
2022-10-03T00:26:24.100Z,73.30
2022-10-03T00:29:30.559Z,73.21
2022-10-03T00:32:24.865Z,73.23
2022-10-03T00:35:15.608Z,73.30
2022-10-03T00:38:44.805Z,73.34
2022-10-03T00:41:53.943Z,73.36
2022-10-03T00:45:23.949Z,73.46
2022-10-03T00:48:23.840Z,73.56
2022-10-03T00:51:43.940Z,73.64
2022-10-03T00:54:53.899Z,73.62
2022-10-03T00:58:09.187Z,73.85
2022-10-03T01:01:30.095Z,73.78
2022-10-03T01:04:28.994Z,73.81
2022-10-03T01:07:35.715Z,74.10
2022-10-03T01:10:30.056Z,74.04
2022-10-03T01:13:52.502Z,73.81
2022-10-03T01:16:55.990Z,73.94
2022-10-03T01:20:09.439Z,73.84
2022-10-03T01:23:00.515Z,74.04
2022-10-03T01:25:52.575Z,74.14
2022-10-03T01:29:11.416Z,74.29
2022-10-03T01:32:05.536Z,74.37
2022-10-03T01:35:38.331Z,74.40
2022-10-03T01:39:03.568Z,74.48
2022-10-03T01:42:04.472Z,74.46
2022-10-03T01:44:58.494Z,74.66
2022-10-03T01:48:01.824Z,74.59
2022-10-03T01:51:14.093Z,74.70
2022-10-03T01:54:04.953Z,74.75
2022-10-03T01:57:01.899Z,74.68
2022-10-03T01:59:49.689Z,74.78
2022-10-03T02:02:54.670Z,75.06
2022-10-03T02:06:03.377Z,75.17
2022-10-03T02:09:11.099Z,75.17
2022-10-03T02:12:09.801Z,75.26
2022-10-03T02:15:30.132Z,75.39
2022-10-03T02:18:55.302Z,75.36
2022-10-03T02:21:55.219Z,75.46
2022-10-03T02:25:00.680Z,75.54
2022-10-03T02:28:18.337Z,75.49
2022-10-03T02:31:23.716Z,75.71
2022-10-03T02:34:30.655Z,75.77
2022-10-03T02:37:40.973Z,75.74
2022-10-03T02:41:08.513Z,75.72
2022-10-03T02:44:18.201Z,75.81
2022-10-03T02:47:21.300Z,75.68
2022-10-03T02:50:38.855Z,75.63
2022-10-03T02:53:45.899Z,75.82
2022-10-03T02:56:42.834Z,75.73
2022-10-03T02:59:43.933Z,76.00
2022-10-03T03:02:54.980Z,75.91
2022-10-03T03:05:58.650Z,75.90
2022-10-03T03:09:27.323Z,75.83
2022-10-03T03:12:24.396Z,75.78
2022-10-03T03:15:44.338Z,75.91
2022-10-03T03:18:46.749Z,76.05
2022-10-03T03:21:53.621Z,76.12
2022-10-03T03:24:54.473Z,76.10
2022-10-03T03:28:02.248Z,76.19
2022-10-03T03:31:07.550Z,76.13
2022-10-03T03:34:23.209Z,76.26
2022-10-03T03:37:27.119Z,76.36
2022-10-03T03:40:32.445Z,76.29
2022-10-03T03:43:34.936Z,76.20
2022-10-03T03:46:49.349Z,76.33
2022-10-03T03:49:51.859Z,76.34
2022-10-03T03:53:01.742Z,76.35
2022-10-03T03:56:00.710Z,76.30
2022-10-03T03:59:16.715Z,76.28
2022-10-03T04:02:35.476Z,76.20
2022-10-03T04:06:14.239Z,76.16
2022-10-03T04:09:14.643Z,76.29
2022-10-03T04:13:14.021Z,76.20
2022-10-03T04:16:58.382Z,76.24
2022-10-03T04:19:48.783Z,76.31
2022-10-03T04:23:01.599Z,76.18
2022-10-03T04:26:02.453Z,76.25
2022-10-03T04:29:36.661Z,76.08
2022-10-03T04:33:01.869Z,76.06
2022-10-03T04:36:16.341Z,76.10
2022-10-03T04:39:17.096Z,76.03
2022-10-03T04:42:24.636Z,76.08
2022-10-03T04:45:15.477Z,75.99
2022-10-03T04:48:17.059Z,76.05
2022-10-03T04:52:03.896Z,75.74
2022-10-03T04:55:06.774Z,75.89
2022-10-03T04:58:36.822Z,75.62
2022-10-03T05:01:50.961Z,75.71
2022-10-03T05:05:01.966Z,75.45
2022-10-03T05:08:18.943Z,75.53
2022-10-03T05:11:19.223Z,75.08
2022-10-03T05:14:18.858Z,74.81
2022-10-03T05:17:25.442Z,74.86
2022-10-03T05:20:43.290Z,74.87
